Time;durP1;ratioP1;P1;durP2;ratioP2;P2;SDS_P1;SDS_P2;PMS_P1;PMS_P2;Temp;Humidity;BMP_temperature;BMP_pressure;BME280_temperature;BME280_humidity;BME280_pressure;Samples;Min_cycle;Max_cycle;Signal;HPM_P1;HPM_P2
2024/01/23 00:00:37;;;;;;;;;;;;;;;4.71;100.00;97127.47;5066530;28;19938;-71
2024/01/23 00:03:03;;;;;;;;;;;;;;;4.70;100.00;97126.66;5067016;28;19937;-70
2024/01/23 00:05:29;;;;;;;;;;;;;;;4.68;100.00;97115.59;5066433;28;19934;-70
2024/01/23 00:07:55;;;;;;;;;;;;;;;4.68;100.00;97118.19;5067132;28;20167;-71
2024/01/23 00:10:22;;;;;;;;;;;;;;;4.66;100.00;97110.59;5066276;28;20129;-71
2024/01/23 00:12:48;;;;;;;;;;;;;;;4.68;100.00;97120.81;5066469;28;19957;-72
2024/01/23 00:15:14;;;;;;;;;;;;;;;4.67;100.00;97119.19;5065738;28;19954;-71
2024/01/23 00:17:40;;;;;;;;;;;;;;;4.65;100.00;97114.16;5066342;28;20157;-75
2024/01/23 00:20:07;;;;;;;;;;;;;;;4.64;100.00;97122.09;5065814;28;19975;-77
2024/01/23 00:22:33;;;;;;;;;;;;;;;4.63;100.00;97112.69;5065672;28;19936;-76
2024/01/23 00:24:59;;;;;;;;;;;;;;;4.61;100.00;97112.06;5066599;28;19947;-77
2024/01/23 00:27:25;;;;;;;;;;;;;;;4.58;100.00;97109.78;5048355;28;19934;-76
2024/01/23 00:29:51;;;;;;;;;;;;;;;4.55;100.00;97105.72;5048085;28;19943;-77
2024/01/23 00:32:17;;;;;;;;;;;;;;;4.54;100.00;97105.91;5065895;28;19952;-71
2024/01/23 00:34:43;;;;;;;;;;;;;;;4.50;100.00;97099.41;5048927;28;19942;-71
2024/01/23 00:37:09;;;;;;;;;;;;;;;4.46;100.00;97104.91;5048955;28;19940;-71
2024/01/23 00:39:38;;;;;;;;;;;;;;;4.43;100.00;97092.25;5065876;28;19933;-71
2024/01/23 00:42:06;;;;;;;;;;;;;;;4.39;100.00;97096.16;5066307;28;19941;-70
2024/01/23 00:44:32;;;;;;;;;;;;;;;4.36;100.00;97087.88;5066195;28;19931;-71
2024/01/23 00:46:57;;;;;;;;;;;;;;;4.32;100.00;97089.97;5065702;28;19943;-71
2024/01/23 00:49:23;;;;;;;;;;;;;;;4.24;100.00;97084.78;5065612;28;19933;-74
2024/01/23 00:51:49;;;;;;;;;;;;;;;4.19;100.00;97093.06;5048518;28;19951;-72
2024/01/23 00:54:15;;;;;;;;;;;;;;;4.16;100.00;97101.19;5065542;28;19941;-73
2024/01/23 00:56:44;;;;;;;;;;;;;;;4.09;100.00;97107.97;5065454;28;19935;-72
2024/01/23 00:59:10;;;;;;;;;;;;;;;4.03;100.00;97099.06;5065948;28;19939;-71
2024/01/23 01:01:36;;;;;;;;;;;;;;;4.01;100.00;97106.19;5066178;28;19931;-73
2024/01/23 01:04:03;;;;;;;;;;;;;;;3.99;100.00;97105.53;5065310;28;19974;-72
2024/01/23 01:06:29;;;;;;;;;;;;;;;4.02;100.00;97125.97;5066052;28;19937;-72
2024/01/23 01:08:55;;;;;;;;;;;;;;;4.02;100.00;97123.38;5065206;28;19958;-72
2024/01/23 01:11:21;;;;;;;;;;;;;;;4.03;100.00;97129.38;5065680;28;19931;-73
2024/01/23 01:13:47;;;;;;;;;;;;;;;4.06;100.00;97136.84;5065409;28;19952;-73
2024/01/23 01:16:12;;;;;;;;;;;;;;;4.09;100.00;97146.91;5047304;28;19948;-74
2024/01/23 01:18:40;;;;;;;;;;;;;;;4.15;100.00;97140.28;5065014;28;20277;-74
2024/01/23 01:21:07;;;;;;;;;;;;;;;4.16;100.00;97134.94;5065853;28;19939;-73
2024/01/23 01:23:34;;;;;;;;;;;;;;;4.18;100.00;97145.97;5064968;28;20126;-73
2024/01/23 01:26:00;;;;;;;;;;;;;;;4.19;100.00;97144.97;5065462;28;19936;-75
2024/01/23 01:28:25;;;;;;;;;;;;;;;4.21;100.00;97147.41;5065692;28;19937;-72
2024/01/23 01:30:51;;;;;;;;;;;;;;;4.20;100.00;97161.34;5064839;28;19940;-71
2024/01/23 01:33:18;;;;;;;;;;;;;;;4.19;100.00;97172.72;5064339;28;20122;-70
2024/01/23 01:35:44;;;;;;;;;;;;;;;4.20;100.00;97169.16;5046942;28;19949;-71
2024/01/23 01:38:10;;;;;;;;;;;;;;;4.20;100.00;97171.75;5064710;28;19940;-71
2024/01/23 01:40:36;;;;;;;;;;;;;;;4.19;100.00;97163.16;5064903;28;19939;-71
2024/01/23 01:43:02;;;;;;;;;;;;;;;4.16;100.00;97154.84;5030382;28;19944;-71
2024/01/23 01:45:27;;;;;;;;;;;;;;;4.16;100.00;97160.88;5064647;28;19974;-72
2024/01/23 01:47:54;;;;;;;;;;;;;;;4.13;100.00;97165.56;5064781;28;19966;-70
2024/01/23 01:50:19;;;;;;;;;;;;;;;4.13;100.00;97179.34;5065067;28;19943;-71
2024/01/23 01:52:45;;;;;;;;;;;;;;;4.14;100.00;97169.81;5064405;28;20031;-71
2024/01/23 01:55:12;;;;;;;;;;;;;;;4.18;100.00;97186.66;5064421;28;19936;-71
2024/01/23 01:57:41;;;;;;;;;;;;;;;4.21;100.00;97179.38;5064371;28;19937;-71
2024/01/23 02:00:08;;;;;;;;;;;;;;;4.23;100.00;97190.41;5047065;28;19953;-70
2024/01/23 02:02:36;;;;;;;;;;;;;;;4.25;100.00;97200.66;5064839;28;20221;-71
2024/01/23 02:05:02;;;;;;;;;;;;;;;4.25;100.00;97198.06;5063853;28;19940;-72
2024/01/23 02:07:29;;;;;;;;;;;;;;;4.25;100.00;97191.06;5064256;28;19952;-72
2024/01/23 02:09:54;;;;;;;;;;;;;;;4.27;100.00;97185.72;5064903;28;20224;-71
2024/01/23 02:12:20;;;;;;;;;;;;;;;4.27;100.00;97191.72;5064515;28;20016;-72
2024/01/23 02:14:46;;;;;;;;;;;;;;;4.29;100.00;97207.16;5030351;28;19945;-71
2024/01/23 02:17:12;;;;;;;;;;;;;;;4.29;100.00;97196.78;5063873;28;19937;-71
2024/01/23 02:19:38;;;;;;;;;;;;;;;4.27;100.00;97199.50;5064817;28;19947;-71
2024/01/23 02:22:04;;;;;;;;;;;;;;;4.29;100.00;97195.97;5064237;28;19949;-75
2024/01/23 02:24:30;;;;;;;;;;;;;;;4.28;100.00;97200.31;5064731;28;19942;-71
2024/01/23 02:26:55;;;;;;;;;;;;;;;4.26;100.00;97210.88;5064390;28;20001;-74
2024/01/23 02:29:21;;;;;;;;;;;;;;;4.23;100.00;97200.81;5046906;28;19943;-74
2024/01/23 02:31:47;;;;;;;;;;;;;;;4.21;100.00;97199.34;5063778;28;19940;-74
2024/01/23 02:34:13;;;;;;;;;;;;;;;4.19;100.00;97198.69;5046388;28;19935;-74
2024/01/23 02:36:41;;;;;;;;;;;;;;;4.17;100.00;97213.63;5063850;28;19941;-73
2024/01/23 02:39:07;;;;;;;;;;;;;;;4.18;100.00;97200.47;5064352;28;19937;-74
2024/01/23 02:41:32;;;;;;;;;;;;;;;4.20;100.00;97200.31;5063852;28;20018;-78
2024/01/23 02:43:58;;;;;;;;;;;;;;;4.19;100.00;97198.69;5064194;28;20274;-70
2024/01/23 02:46:24;;;;;;;;;;;;;;;4.20;100.00;97195.94;5067983;28;19937;-71
2024/01/23 02:48:50;;;;;;;;;;;;;;;4.19;100.00;97190.91;5068681;28;19940;-71
2024/01/23 02:51:16;;;;;;;;;;;;;;;4.20;100.00;97184.72;5068462;28;20266;-71
2024/01/23 02:53:42;;;;;;;;;;;;;;;4.19;100.00;97196.09;5068574;28;19957;-71
2024/01/23 02:56:08;;;;;;;;;;;;;;;4.18;100.00;97194.44;5067794;28;19948;-71
2024/01/23 02:58:34;;;;;;;;;;;;;;;4.19;100.00;97198.69;5067824;28;19932;-72
2024/01/23 03:01:00;;;;;;;;;;;;;;;4.19;100.00;97194.31;5067773;28;19931;-71
2024/01/23 03:03:25;;;;;;;;;;;;;;;4.20;100.00;97198.53;5049862;28;19984;-70
2024/01/23 03:05:51;;;;;;;;;;;;;;;4.23;100.00;97198.22;5050516;28;19941;-71
2024/01/23 03:08:19;;;;;;;;;;;;;;;4.26;100.00;97213.47;5032935;28;19980;-72
2024/01/23 03:10:45;;;;;;;;;;;;;;;4.27;100.00;97202.13;5050620;28;19933;-71
2024/01/23 03:13:11;;;;;;;;;;;;;;;4.31;100.00;97204.41;5068210;28;20153;-72
2024/01/23 03:15:37;;;;;;;;;;;;;;;4.33;100.00;97212.84;5050446;28;19939;-71
2024/01/23 03:18:03;;;;;;;;;;;;;;;4.34;100.00;97214.47;5067257;28;19969;-71
2024/01/23 03:20:30;;;;;;;;;;;;;;;4.34;100.00;97217.06;5067440;28;19942;-71
2024/01/23 03:22:56;;;;;;;;;;;;;;;4.35;100.00;97227.28;5067833;28;19961;-71
2024/01/23 03:25:22;;;;;;;;;;;;;;;4.36;100.00;97223.72;5068109;28;19937;-71
2024/01/23 03:27:48;;;;;;;;;;;;;;;4.39;100.00;97227.75;5066587;28;20224;-72
2024/01/23 03:30:26;;;;;;;;;;;;;;;4.42;100.00;97223.06;5067211;28;19941;-72
2024/01/23 03:32:52;;;;;;;;;;;;;;;4.42;100.00;97240.44;5067798;28;19955;-72
2024/01/23 03:35:19;;;;;;;;;;;;;;;4.44;100.00;97259.28;5067068;28;19972;-74
2024/01/23 03:37:45;;;;;;;;;;;;;;;4.43;100.00;97248.09;5067584;28;19933;-71
2024/01/23 03:40:11;;;;;;;;;;;;;;;4.43;100.00;97260.25;5066946;28;19941;-72
2024/01/23 03:42:37;;;;;;;;;;;;;;;4.42;100.00;97256.84;5049348;28;19928;-73
2024/01/23 03:45:03;;;;;;;;;;;;;;;4.41;100.00;97255.22;5066907;28;19937;-73
2024/01/23 03:47:29;;;;;;;;;;;;;;;4.41;100.00;97262.19;5066816;28;19931;-72
2024/01/23 03:49:55;;;;;;;;;;;;;;;4.40;100.00;97271.75;5066790;28;19991;-73
2024/01/23 03:52:22;;;;;;;;;;;;;;;4.40;100.00;97269.16;5049016;28;19944;-72
2024/01/23 03:54:48;;;;;;;;;;;;;;;4.41;100.00;97272.56;5066355;28;19934;-81
2024/01/23 03:57:14;;;;;;;;;;;;;;;4.43;100.00;97278.41;5066753;28;19936;-69
2024/01/23 03:59:44;;;;;;;;;;;;;;;4.43;100.00;97283.63;5049584;28;19939;-69
2024/01/23 04:02:09;;;;;;;;;;;;;;;4.43;100.00;97289.66;5048808;28;19993;-69
2024/01/23 04:04:36;;;;;;;;;;;;;;;4.42;100.00;97289.78;5066490;28;19946;-69
2024/01/23 04:07:02;;;;;;;;;;;;;;;4.41;100.00;97285.56;5066766;28;19935;-69
2024/01/23 04:09:28;;;;;;;;;;;;;;;4.37;100.00;97285.06;5066866;28;20225;-69
2024/01/23 04:11:54;;;;;;;;;;;;;;;4.36;100.00;97291.22;5067177;28;20196;-71
2024/01/23 04:14:20;;;;;;;;;;;;;;;4.34;100.00;97308.75;5048607;28;19957;-77
2024/01/23 04:16:46;;;;;;;;;;;;;;;4.32;100.00;97309.88;5067154;28;19944;-70
2024/01/23 04:19:12;;;;;;;;;;;;;;;4.29;100.00;97318.00;5066149;28;19962;-70
2024/01/23 04:21:38;;;;;;;;;;;;;;;4.24;100.00;97303.69;5066672;28;20133;-70
2024/01/23 04:24:04;;;;;;;;;;;;;;;4.22;100.00;97302.22;5048811;28;19983;-70
2024/01/23 04:26:30;;;;;;;;;;;;;;;4.17;100.00;97288.91;5048391;28;20015;-70
2024/01/23 04:28:56;;;;;;;;;;;;;;;4.14;100.00;97303.00;5049172;28;19933;-70
2024/01/23 04:31:22;;;;;;;;;;;;;;;4.11;100.00;97311.09;5066070;28;19934;-74
2024/01/23 04:33:49;;;;;;;;;;;;;;;4.12;100.00;97307.53;5048228;28;19951;-78
2024/01/23 04:36:16;;;;;;;;;;;;;;;4.11;100.00;97318.88;5065931;28;19939;-78
2024/01/23 04:38:42;;;;;;;;;;;;;;;4.11;100.00;97334.44;5066420;28;19937;-78
2024/01/23 04:41:11;;;;;;;;;;;;;;;4.12;100.00;97333.50;5065905;28;19937;-78
2024/01/23 04:43:37;;;;;;;;;;;;;;;4.14;100.00;97341.94;5066023;28;20213;-78
2024/01/23 04:46:03;;;;;;;;;;;;;;;4.14;100.00;97344.53;5065814;28;19934;-78
2024/01/23 04:48:29;;;;;;;;;;;;;;;4.14;100.00;97349.75;5066014;28;19938;-77
2024/01/23 04:50:55;;;;;;;;;;;;;;;4.16;100.00;97360.78;5065706;28;19934;-71
2024/01/23 04:53:21;;;;;;;;;;;;;;;4.17;100.00;97374.56;5066396;28;19959;-71
2024/01/23 04:55:47;;;;;;;;;;;;;;;4.14;100.00;97390.47;5065537;28;19939;-72
2024/01/23 04:58:13;;;;;;;;;;;;;;;4.08;100.00;97397.06;5066111;28;20118;-71
2024/01/23 05:00:38;;;;;;;;;;;;;;;4.05;100.00;97403.41;5066013;28;19932;-71
2024/01/23 05:03:04;;;;;;;;;;;;;;;4.03;100.00;97394.09;5065475;28;19939;-70
2024/01/23 05:05:31;;;;;;;;;;;;;;;4.00;100.00;97405.63;5065511;28;20225;-70
2024/01/23 05:07:57;;;;;;;;;;;;;;;3.98;100.00;97399.75;5065074;28;20241;-72
2024/01/23 05:10:24;;;;;;;;;;;;;;;3.93;100.00;97415.00;5066151;28;19935;-77
2024/01/23 05:12:50;;;;;;;;;;;;;;;3.91;100.00;97427.31;5047466;28;19957;-71
2024/01/23 05:15:15;;;;;;;;;;;;;;;3.84;100.00;97415.88;5048295;28;20125;-71
2024/01/23 05:17:41;;;;;;;;;;;;;;;3.81;100.00;97416.19;5065031;28;19973;-71
2024/01/23 05:20:07;;;;;;;;;;;;;;;3.75;100.00;97430.56;5065954;28;19944;-71
2024/01/23 05:22:34;;;;;;;;;;;;;;;3.72;100.00;97433.47;5065898;28;19936;-71
2024/01/23 05:25:00;;;;;;;;;;;;;;;3.70;100.00;97442.38;5065013;28;19944;-71
2024/01/23 05:27:26;;;;;;;;;;;;;;;3.64;100.00;97442.00;5064989;28;19926;-70
2024/01/23 05:29:52;;;;;;;;;;;;;;;3.59;100.00;97453.78;5064978;28;20229;-77
2024/01/23 05:32:18;;;;;;;;;;;;;;;3.57;100.00;97464.31;5064812;28;19947;-78
2024/01/23 05:34:43;;;;;;;;;;;;;;;3.53;100.00;97475.97;5064869;28;20002;-78
2024/01/23 05:37:10;;;;;;;;;;;;;;;3.49;100.00;97484.19;5065337;28;19993;-78
2024/01/23 05:39:37;;;;;;;;;;;;;;;3.44;100.00;97472.47;5065270;28;19940;-79
2024/01/23 05:42:03;;;;;;;;;;;;;;;3.38;100.00;97480.84;5065280;28;19937;-78
2024/01/23 05:44:29;;;;;;;;;;;;;;;3.37;100.00;97480.97;5065226;28;19937;-71
2024/01/23 05:46:55;;;;;;;;;;;;;;;3.32;100.00;97493.56;5064584;28;19945;-74
2024/01/23 05:49:21;;;;;;;;;;;;;;;3.30;100.00;97465.19;5064795;28;19937;-74
2024/01/23 05:51:47;;;;;;;;;;;;;;;3.29;100.00;97473.94;5064443;28;19940;-74
2024/01/23 05:54:13;;;;;;;;;;;;;;;3.30;100.00;97478.16;5064403;28;20268;-74
2024/01/23 05:56:39;;;;;;;;;;;;;;;3.31;100.00;97482.38;5064462;28;19935;-74
2024/01/23 05:59:04;;;;;;;;;;;;;;;3.29;100.00;97475.72;5065226;28;20280;-76
2024/01/23 06:01:33;;;;;;;;;;;;;;;3.27;100.00;97488.00;5065202;28;20177;-75
2024/01/23 06:04:00;;;;;;;;;;;;;;;3.24;100.00;97489.94;5065128;28;19935;-76
2024/01/23 06:06:26;;;;;;;;;;;;;;;3.24;100.00;97499.47;5065148;28;19934;-73
2024/01/23 06:08:52;;;;;;;;;;;;;;;3.25;100.00;97501.09;5046661;28;19939;-73
2024/01/23 06:11:18;;;;;;;;;;;;;;;3.26;100.00;97502.75;5064262;28;20007;-73
2024/01/23 06:13:44;;;;;;;;;;;;;;;3.27;100.00;97508.75;5064133;28;19958;-73
2024/01/23 06:16:10;;;;;;;;;;;;;;;3.29;100.00;97524.97;5064985;28;20140;-73
2024/01/23 06:18:36;;;;;;;;;;;;;;;3.28;100.00;97521.56;5063913;28;19963;-73
2024/01/23 06:21:02;;;;;;;;;;;;;;;3.28;100.00;97533.72;5064102;28;19946;-76
2024/01/23 06:23:28;;;;;;;;;;;;;;;3.26;100.00;97541.63;5047028;28;19950;-70
2024/01/23 06:25:54;;;;;;;;;;;;;;;3.20;100.00;97547.41;5064745;28;20183;-70
2024/01/23 06:28:20;;;;;;;;;;;;;;;3.12;100.00;97550.69;5046587;28;19936;-70
2024/01/23 06:30:46;;;;;;;;;;;;;;;3.09;100.00;97547.56;5047007;28;19930;-70
2024/01/23 06:33:12;;;;;;;;;;;;;;;3.04;100.00;97561.78;5046786;28;20189;-70
2024/01/23 06:35:38;;;;;;;;;;;;;;;3.03;100.00;97556.75;5063895;28;20246;-71
2024/01/23 06:38:04;;;;;;;;;;;;;;;3.04;100.00;97558.38;5064997;28;19940;-71
2024/01/23 06:40:30;;;;;;;;;;;;;;;3.03;100.00;97549.78;5030563;28;19939;-70
2024/01/23 06:42:56;;;;;;;;;;;;;;;3.02;100.00;97558.53;5064415;28;19943;-72
2024/01/23 06:45:22;;;;;;;;;;;;;;;3.02;100.00;97561.13;5064403;28;19935;-71
2024/01/23 06:47:48;;;;;;;;;;;;;;;3.00;100.00;97573.41;5063781;28;19937;-72
2024/01/23 06:50:14;;;;;;;;;;;;;;;2.96;100.00;97576.41;5063819;28;19933;-72
2024/01/23 06:52:40;;;;;;;;;;;;;;;2.94;100.00;97583.50;5064462;28;19934;-72
2024/01/23 06:55:06;;;;;;;;;;;;;;;2.93;100.00;97587.06;5063762;28;19934;-72
2024/01/23 06:57:32;;;;;;;;;;;;;;;2.94;100.00;97599.88;5063754;28;19968;-72
2024/01/23 06:59:57;;;;;;;;;;;;;;;2.93;100.00;97607.78;5064527;28;19937;-79
2024/01/23 07:02:23;;;;;;;;;;;;;;;2.91;100.00;97614.88;5046873;28;19945;-77
2024/01/23 07:04:49;;;;;;;;;;;;;;;2.93;100.00;97618.16;5064121;28;19931;-77
2024/01/23 07:07:15;;;;;;;;;;;;;;;2.98;100.00;97626.31;5064168;28;19941;-76
2024/01/23 07:09:41;;;;;;;;;;;;;;;3.01;100.00;97637.22;5063547;28;19961;-76
2024/01/23 07:12:07;;;;;;;;;;;;;;;3.04;100.00;97633.53;5063599;28;19935;-76
2024/01/23 07:14:33;;;;;;;;;;;;;;;3.08;100.00;97641.84;5064029;28;19954;-74
2024/01/23 07:16:58;;;;;;;;;;;;;;;3.08;100.00;97650.44;5045889;28;19982;-78
2024/01/23 07:19:24;;;;;;;;;;;;;;;3.09;100.00;97659.00;5045706;28;20005;-71
2024/01/23 07:21:50;;;;;;;;;;;;;;;3.10;100.00;97656.28;5029996;28;19986;-71
2024/01/23 07:24:17;;;;;;;;;;;;;;;3.11;100.00;97657.94;5029330;28;19942;-70
2024/01/23 07:26:43;;;;;;;;;;;;;;;3.15;100.00;97661.03;5046620;28;19955;-71
2024/01/23 07:29:08;;;;;;;;;;;;;;;3.14;100.00;97660.22;5045727;28;19936;-70
2024/01/23 07:31:34;;;;;;;;;;;;;;;3.12;100.00;97664.75;5066741;28;19940;-71
2024/01/23 07:34:00;;;;;;;;;;;;;;;3.11;100.00;97667.47;5067372;28;20142;-70
2024/01/23 07:36:26;;;;;;;;;;;;;;;3.13;100.00;97675.91;5033731;28;19960;-73
2024/01/23 07:38:52;;;;;;;;;;;;;;;3.11;100.00;97676.09;5067564;28;20216;-71
2024/01/23 07:41:18;;;;;;;;;;;;;;;3.11;100.00;97676.09;5067589;28;19956;-71
2024/01/23 07:43:44;;;;;;;;;;;;;;;3.13;100.00;97674.16;5067488;28;20091;-71
2024/01/23 07:46:10;;;;;;;;;;;;;;;3.17;100.00;97672.09;5066929;28;20218;-70
2024/01/23 07:48:36;;;;;;;;;;;;;;;3.21;100.00;97678.63;5067417;28;19945;-70
2024/01/23 07:51:04;;;;;;;;;;;;;;;3.23;100.00;97685.34;5067056;28;19936;-70
2024/01/23 07:53:30;;;;;;;;;;;;;;;3.26;100.00;97692.00;5048900;28;19962;-71
2024/01/23 07:55:57;;;;;;;;;;;;;;;3.23;100.00;97692.25;5049243;28;19939;-71
2024/01/23 07:58:23;;;;;;;;;;;;;;;3.23;100.00;97700.03;5067203;28;19935;-71
2024/01/23 08:00:48;;;;;;;;;;;;;;;3.19;100.00;97716.84;5066645;28;19986;-71
2024/01/23 08:03:14;;;;;;;;;;;;;;;3.13;100.00;97726.00;5067144;28;19932;-70
2024/01/23 08:05:40;;;;;;;;;;;;;;;3.12;100.00;97726.13;5066483;28;20228;-71
2024/01/23 08:08:06;;;;;;;;;;;;;;;3.10;100.00;97738.41;5049290;28;19952;-70
2024/01/23 08:10:34;;;;;;;;;;;;;;;3.09;100.00;97745.38;5067013;28;19942;-70
2024/01/23 08:13:00;;;;;;;;;;;;;;;3.12;100.00;97734.72;5066379;28;19943;-71
2024/01/23 08:15:26;;;;;;;;;;;;;;;3.12;100.00;97731.31;5048645;28;19951;-70
2024/01/23 08:17:51;;;;;;;;;;;;;;;3.09;100.00;97737.59;5066435;28;20187;-70
2024/01/23 08:20:18;;;;;;;;;;;;;;;3.06;100.00;97735.28;5066257;28;20134;-70
2024/01/23 08:22:44;;;;;;;;;;;;;;;3.07;100.00;97741.28;5048571;28;20019;-70
2024/01/23 08:25:10;;;;;;;;;;;;;;;3.36;100.00;97738.63;5066193;28;19939;-70
2024/01/23 08:27:36;;;;;;;;;;;;;;;4.10;100.00;97734.41;5066119;28;19939;-71
2024/01/23 08:30:02;;;;;;;;;;;;;;;4.74;100.00;97730.00;5048961;28;20005;-74
2024/01/23 08:32:28;;;;;;;;;;;;;;;5.15;100.00;97731.16;5066592;28;19929;-73
2024/01/23 08:34:54;;;;;;;;;;;;;;;5.06;100.00;97725.09;5065954;28;19989;-70
2024/01/23 08:37:19;;;;;;;;;;;;;;;4.88;100.00;97729.47;5048904;28;19980;-70
2024/01/23 08:39:45;;;;;;;;;;;;;;;5.12;100.00;97730.63;5047974;28;20297;-70
2024/01/23 08:42:11;;;;;;;;;;;;;;;5.19;100.00;97722.09;5064730;28;19985;-70
2024/01/23 08:44:37;;;;;;;;;;;;;;;5.05;100.00;97733.03;5065741;28;19944;-70
2024/01/23 08:47:03;;;;;;;;;;;;;;;4.78;100.00;97731.34;5066472;28;19943;-70
2024/01/23 08:49:29;;;;;;;;;;;;;;;4.61;100.00;97746.78;5065717;28;19943;-79
2024/01/23 08:51:55;;;;;;;;;;;;;;;4.56;100.00;97756.00;5065686;28;19936;-78
2024/01/23 08:54:21;;;;;;;;;;;;;;;4.59;100.00;97753.09;5065468;28;19952;-78
2024/01/23 08:56:47;;;;;;;;;;;;;;;4.74;100.00;97748.19;5047804;28;19941;-79
2024/01/23 08:59:13;;;;;;;;;;;;;;;4.79;100.00;97752.00;5047818;28;20191;-79
2024/01/23 09:01:39;;;;;;;;;;;;;;;4.96;100.00;97752.94;5047912;28;19937;-80
2024/01/23 09:04:05;;;;;;;;;;;;;;;5.21;100.00;97763.56;5047514;28;19941;-79
2024/01/23 09:06:31;;;;;;;;;;;;;;;5.42;100.00;97742.41;5047715;28;19998;-74
2024/01/23 09:08:57;;;;;;;;;;;;;;;5.56;100.00;97759.22;5047556;28;19958;-72
2024/01/23 09:11:23;;;;;;;;;;;;;;;5.83;100.00;97763.44;5065831;28;19933;-72
2024/01/23 09:13:49;;;;;;;;;;;;;;;6.12;100.00;97765.72;5065129;28;20235;-72
2024/01/23 09:16:15;;;;;;;;;;;;;;;6.28;100.00;97773.59;5065182;28;19938;-72
2024/01/23 09:18:44;;;;;;;;;;;;;;;6.49;100.00;97782.78;5064947;28;19987;-72
2024/01/23 09:21:10;;;;;;;;;;;;;;;6.65;100.00;97779.38;5065628;28;19964;-72
2024/01/23 09:23:39;;;;;;;;;;;;;;;6.74;100.00;97788.88;5065067;28;20225;-72
2024/01/23 09:26:04;;;;;;;;;;;;;;;6.61;100.00;97780.69;5065046;28;20119;-79
2024/01/23 09:28:30;;;;;;;;;;;;;;;6.43;100.00;97786.03;5047263;28;19936;-73
2024/01/23 09:30:56;;;;;;;;;;;;;;;6.22;100.00;97789.84;5065607;28;20202;-73
2024/01/23 09:33:22;;;;;;;;;;;;;;;6.08;100.00;97798.25;5047097;28;20241;-72
2024/01/23 09:35:48;;;;;;;;;;;;;;;5.90;100.00;97811.31;5065569;28;19942;-73
2024/01/23 09:38:14;;;;;;;;;;;;;;;5.77;100.00;97821.31;5064713;28;19929;-72
2024/01/23 09:40:48;;;;;;;;;;;;;;;5.61;100.00;97814.25;5064699;28;19941;-73
2024/01/23 09:43:15;;;;;;;;;;;;;;;5.48;100.00;97830.22;5065494;28;19941;-72
2024/01/23 09:45:41;;;;;;;;;;;;;;;5.37;100.00;97839.09;5064558;28;19936;-74
2024/01/23 09:48:07;;;;;;;;;;;;;;;5.29;100.00;97849.41;5065364;28;19948;-74
2024/01/23 09:50:33;;;;;;;;;;;;;;;5.60;100.00;97854.22;5064533;28;19934;-74
2024/01/23 09:52:59;;;;;;;;;;;;;;;6.08;100.00;97843.34;5064904;28;19971;-72
2024/01/23 09:55:25;;;;;;;;;;;;;;;6.10;100.00;97854.41;5064285;28;20022;-72
2024/01/23 09:57:51;;;;;;;;;;;;;;;5.89;100.00;97853.94;5064282;28;19928;-72
2024/01/23 10:00:17;;;;;;;;;;;;;;;5.68;100.00;97859.50;5064326;28;19962;-72
2024/01/23 10:02:44;;;;;;;;;;;;;;;5.49;100.00;97853.50;5064328;28;19939;-79
2024/01/23 10:05:15;;;;;;;;;;;;;;;5.35;100.00;97855.81;5064298;28;19931;-70
2024/01/23 10:07:42;;;;;;;;;;;;;;;5.27;100.00;97856.56;5064334;28;19936;-70
2024/01/23 10:10:15;;;;;;;;;;;;;;;5.22;100.00;97872.63;5064202;28;19937;-70
2024/01/23 10:12:44;;;;;;;;;;;;;;;5.19;100.00;97872.13;5047123;28;19944;-70
2024/01/23 10:15:11;;;;;;;;;;;;;;;5.13;100.00;97876.13;5046615;28;20122;-70
2024/01/23 10:17:37;;;;;;;;;;;;;;;5.12;100.00;97868.47;5063941;28;19966;-70
2024/01/23 10:20:04;;;;;;;;;;;;;;;5.11;100.00;97870.25;5030621;28;19944;-72
2024/01/23 10:22:30;;;;;;;;;;;;;;;5.07;100.00;97880.13;5046397;28;20252;-72
2024/01/23 10:24:56;;;;;;;;;;;;;;;5.06;100.00;97873.28;5064540;28;19934;-71
2024/01/23 10:27:21;;;;;;;;;;;;;;;5.02;100.00;97864.16;5063994;28;20089;-72
2024/01/23 10:29:49;;;;;;;;;;;;;;;5.03;100.00;97870.16;5030527;28;19943;-72
2024/01/23 10:32:15;;;;;;;;;;;;;;;5.03;100.00;97870.16;5063933;28;19936;-71
2024/01/23 10:34:41;;;;;;;;;;;;;;;5.11;100.00;97864.22;5063879;28;19959;-72
2024/01/23 10:37:07;;;;;;;;;;;;;;;5.36;100.00;97863.47;5064696;28;19942;-71
2024/01/23 10:39:35;;;;;;;;;;;;;;;5.74;100.00;97863.28;5064449;28;19938;-73
2024/01/23 10:42:01;;;;;;;;;;;;;;;6.07;100.00;97854.75;5029561;28;19944;-73
2024/01/23 10:44:28;;;;;;;;;;;;;;;6.23;100.00;97861.00;5046775;28;19933;-72
2024/01/23 10:46:55;;;;;;;;;;;;;;;6.42;100.00;97868.56;5045566;28;20121;-73
2024/01/23 10:49:22;;;;;;;;;;;;;;;6.49;100.00;97860.97;5029393;28;19937;-73
2024/01/23 10:51:49;;;;;;;;;;;;;;;6.54;100.00;97857.88;5029427;28;19945;-73
2024/01/23 10:54:20;;;;;;;;;;;;;;;6.77;100.00;97855.53;5046484;28;19956;-73
2024/01/23 10:56:49;;;;;;;;;;;;;;;7.02;100.00;97848.56;5046516;28;20090;-73
2024/01/23 10:59:17;;;;;;;;;;;;;;;7.19;100.00;97845.00;5064450;28;19935;-70
2024/01/23 11:01:45;;;;;;;;;;;;;;;7.36;100.00;97826.75;5063676;28;19931;-72
2024/01/23 11:04:11;;;;;;;;;;;;;;;7.45;100.00;97833.59;5064191;28;19948;-71
2024/01/23 11:06:43;;;;;;;;;;;;;;;7.53;100.00;97830.97;5066897;28;19949;-71
2024/01/23 11:09:12;;;;;;;;;;;;;;;7.57;100.00;97802.75;5068096;28;19952;-71
2024/01/23 11:11:41;;;;;;;;;;;;;;;7.51;100.00;97807.63;5067585;28;19947;-71
2024/01/23 11:14:27;;;;;;;;;;;;;;;7.32;100.00;97793.13;5068243;28;19953;-71
2024/01/23 11:17:05;;;;;;;;;;;;;;;7.12;100.00;97815.31;5049797;28;19947;-72
2024/01/23 11:19:33;;;;;;;;;;;;;;;6.89;100.00;97817.75;5066128;28;19941;-73
2024/01/23 11:22:02;;;;;;;;;;;;;;;6.73;100.00;97825.53;5049145;28;19943;-73
2024/01/23 11:24:38;;;;;;;;;;;;;;;6.56;100.00;97848.13;5031702;28;19932;-74
2024/01/23 11:27:05;;;;;;;;;;;;;;;6.43;100.00;97851.16;5048758;28;19989;-73
2024/01/23 11:29:31;;;;;;;;;;;;;;;6.38;100.00;97848.19;5048129;28;19949;-73
2024/01/23 11:31:57;;;;;;;;;;;;;;;6.28;100.00;97838.72;5066179;28;19939;-73
2024/01/23 11:34:23;;;;;;;;;;;;;;;6.24;100.00;97853.03;5031542;28;19968;-73
2024/01/23 11:36:49;;;;;;;;;;;;;;;6.26;100.00;97865.91;5066395;28;19931;-72
2024/01/23 11:39:15;;;;;;;;;;;;;;;6.48;100.00;97857.53;5065815;28;19934;-73
2024/01/23 11:41:47;;;;;;;;;;;;;;;6.84;100.00;97849.50;5048078;28;19947;-74
2024/01/23 11:44:13;;;;;;;;;;;;;;;7.16;100.00;97827.06;5048642;28;19942;-73
2024/01/23 11:46:38;;;;;;;;;;;;;;;7.47;100.00;97814.16;5047833;28;19940;-73
2024/01/23 11:49:05;;;;;;;;;;;;;;;7.62;100.00;97806.50;5066167;28;19943;-73
2024/01/23 11:51:30;;;;;;;;;;;;;;;7.59;100.00;97827.72;5031359;28;19946;-73
2024/01/23 11:53:58;;;;;;;;;;;;;;;7.46;100.00;97833.44;5064519;28;19959;-73
2024/01/23 11:56:24;;;;;;;;;;;;;;;7.35;100.00;97820.72;5047784;28;19941;-69
2024/01/23 11:58:50;;;;;;;;;;;;;;;7.35;100.00;97823.31;5066325;28;20001;-70
2024/01/23 12:01:17;;;;;;;;;;;;;;;7.39;100.00;97831.63;5065975;28;19938;-70
2024/01/23 12:03:47;;;;;;;;;;;;;;;7.36;100.00;97834.56;5065931;28;19929;-70
2024/01/23 12:06:12;;;;;;;;;;;;;;;7.37;100.00;97851.84;5065907;28;19935;-69
2024/01/23 12:08:38;;;;;;;;;;;;;;;7.32;100.00;97841.91;5065704;28;20259;-68
2024/01/23 12:11:04;;;;;;;;;;;;;;;7.44;100.00;97865.91;5066144;28;19947;-69
2024/01/23 12:13:30;;;;;;;;;;;;;;;7.75;100.00;97832.09;5065389;28;19973;-72
2024/01/23 12:15:56;;;;;;;;;;;;;;;7.78;100.00;97823.94;5065764;28;19956;-69
2024/01/23 12:18:22;;;;;;;;;;;;;;;7.59;100.00;97808.63;4984996;28;1781503;-69
2024/01/23 12:20:48;;;;;;;;;;;;;;;7.42;100.00;97810.44;5066808;28;19946;-70
2024/01/23 12:23:17;;;;;;;;;;;;;;;7.25;100.00;97812.22;5066275;28;19947;-69
2024/01/23 12:25:43;;;;;;;;;;;;;;;7.08;100.00;97786.13;5066450;28;20121;-69
2024/01/23 12:28:09;;;;;;;;;;;;;;;6.96;100.00;97815.31;5066948;28;19940;-69
2024/01/23 12:30:35;;;;;;;;;;;;;;;6.83;100.00;97813.97;5066398;28;19942;-69
2024/01/23 12:33:01;;;;;;;;;;;;;;;6.83;100.00;97836.63;5066055;28;19959;-71
2024/01/23 12:35:27;;;;;;;;;;;;;;;6.85;100.00;97845.91;5049053;28;20003;-71
2024/01/23 12:37:53;;;;;;;;;;;;;;;6.85;100.00;97813.81;5066778;28;19935;-72
2024/01/23 12:40:21;;;;;;;;;;;;;;;6.83;100.00;97824.41;5065954;28;19944;-71
2024/01/23 12:42:47;;;;;;;;;;;;;;;6.77;100.00;97812.00;5065741;28;19939;-71